sensor_id;sensor_type;location;lat;lon;timestamp;P1;durP1;ratioP1;P2;durP2;ratioP2
73132;SDS011;61320;52.008;4.530;2023-02-28T00:00:25;4.20;;;4.19;;
73132;SDS011;61320;52.008;4.530;2023-02-28T00:02:51;4.01;;;3.99;;
73132;SDS011;61320;52.008;4.530;2023-02-28T00:05:28;4.32;;;4.30;;
73132;SDS011;61320;52.008;4.530;2023-02-28T00:07:57;4.43;;;4.43;;
73132;SDS011;61320;52.008;4.530;2023-02-28T00:10:24;4.23;;;4.22;;
73132;SDS011;61320;52.008;4.530;2023-02-28T00:12:52;4.13;;;4.12;;
73132;SDS011;61320;52.008;4.530;2023-02-28T00:15:20;4.23;;;4.20;;
73132;SDS011;61320;52.008;4.530;2023-02-28T00:17:46;4.13;;;4.08;;
73132;SDS011;61320;52.008;4.530;2023-02-28T00:20:12;4.00;;;3.97;;
73132;SDS011;61320;52.008;4.530;2023-02-28T00:22:39;3.98;;;3.97;;
73132;SDS011;61320;52.008;4.530;2023-02-28T00:25:10;4.12;;;4.11;;
73132;SDS011;61320;52.008;4.530;2023-02-28T00:27:38;4.05;;;4.04;;
73132;SDS011;61320;52.008;4.530;2023-02-28T00:30:05;4.19;;;4.18;;
73132;SDS011;61320;52.008;4.530;2023-02-28T00:32:33;4.09;;;4.06;;
73132;SDS011;61320;52.008;4.530;2023-02-28T00:34:59;4.11;;;4.08;;
73132;SDS011;61320;52.008;4.530;2023-02-28T00:37:25;3.95;;;3.93;;
73132;SDS011;61320;52.008;4.530;2023-02-28T00:39:51;4.03;;;4.03;;
73132;SDS011;61320;52.008;4.530;2023-02-28T00:42:17;3.95;;;3.95;;
73132;SDS011;61320;52.008;4.530;2023-02-28T00:44:42;3.93;;;3.92;;
73132;SDS011;61320;52.008;4.530;2023-02-28T00:47:08;3.84;;;3.80;;
73132;SDS011;61320;52.008;4.530;2023-02-28T00:49:33;4.08;;;4.07;;
73132;SDS011;61320;52.008;4.530;2023-02-28T00:51:59;4.02;;;4.01;;
73132;SDS011;61320;52.008;4.530;2023-02-28T00:54:24;3.93;;;3.93;;
73132;SDS011;61320;52.008;4.530;2023-02-28T00:56:50;3.82;;;3.82;;
73132;SDS011;61320;52.008;4.530;2023-02-28T00:59:16;3.88;;;3.88;;
73132;SDS011;61320;52.008;4.530;2023-02-28T01:01:43;3.76;;;3.76;;
73132;SDS011;61320;52.008;4.530;2023-02-28T01:04:11;3.86;;;3.86;;
73132;SDS011;61320;52.008;4.530;2023-02-28T01:06:37;4.01;;;4.01;;
73132;SDS011;61320;52.008;4.530;2023-02-28T01:09:03;3.93;;;3.93;;
73132;SDS011;61320;52.008;4.530;2023-02-28T01:11:30;4.14;;;4.14;;
73132;SDS011;61320;52.008;4.530;2023-02-28T01:13:56;4.06;;;4.05;;
73132;SDS011;61320;52.008;4.530;2023-02-28T01:16:22;4.11;;;4.11;;
73132;SDS011;61320;52.008;4.530;2023-02-28T01:18:47;4.17;;;4.16;;
73132;SDS011;61320;52.008;4.530;2023-02-28T01:21:14;4.22;;;4.22;;
73132;SDS011;61320;52.008;4.530;2023-02-28T01:23:42;4.35;;;4.34;;
73132;SDS011;61320;52.008;4.530;2023-02-28T01:26:29;4.48;;;4.48;;
73132;SDS011;61320;52.008;4.530;2023-02-28T01:28:54;4.22;;;4.22;;
73132;SDS011;61320;52.008;4.530;2023-02-28T01:31:20;4.20;;;4.19;;
73132;SDS011;61320;52.008;4.530;2023-02-28T01:33:46;4.19;;;4.16;;
73132;SDS011;61320;52.008;4.530;2023-02-28T01:36:20;4.51;;;4.49;;
73132;SDS011;61320;52.008;4.530;2023-02-28T01:38:47;4.36;;;4.36;;
73132;SDS011;61320;52.008;4.530;2023-02-28T01:41:23;4.12;;;4.12;;
73132;SDS011;61320;52.008;4.530;2023-02-28T01:43:54;4.15;;;4.14;;
73132;SDS011;61320;52.008;4.530;2023-02-28T01:46:29;4.49;;;4.47;;
73132;SDS011;61320;52.008;4.530;2023-02-28T01:49:00;4.35;;;4.34;;
73132;SDS011;61320;52.008;4.530;2023-02-28T01:51:39;4.14;;;4.14;;
73132;SDS011;61320;52.008;4.530;2023-02-28T01:54:26;4.08;;;4.07;;
73132;SDS011;61320;52.008;4.530;2023-02-28T01:56:56;4.44;;;4.43;;
73132;SDS011;61320;52.008;4.530;2023-02-28T01:59:33;4.19;;;4.19;;
73132;SDS011;61320;52.008;4.530;2023-02-28T02:02:05;4.40;;;4.40;;
73132;SDS011;61320;52.008;4.530;2023-02-28T02:04:33;4.43;;;4.43;;
73132;SDS011;61320;52.008;4.530;2023-02-28T02:07:05;4.56;;;4.54;;
73132;SDS011;61320;52.008;4.530;2023-02-28T02:09:31;4.66;;;4.65;;
73132;SDS011;61320;52.008;4.530;2023-02-28T02:11:56;4.51;;;4.51;;
73132;SDS011;61320;52.008;4.530;2023-02-28T02:14:29;5.09;;;5.09;;
73132;SDS011;61320;52.008;4.530;2023-02-28T02:25:55;5.19;;;5.19;;
73132;SDS011;61320;52.008;4.530;2023-02-28T02:37:27;5.45;;;5.45;;
73132;SDS011;61320;52.008;4.530;2023-02-28T02:40:19;5.40;;;5.40;;
73132;SDS011;61320;52.008;4.530;2023-02-28T02:48:11;5.93;;;5.93;;
73132;SDS011;61320;52.008;4.530;2023-02-28T02:50:42;6.19;;;6.19;;
73132;SDS011;61320;52.008;4.530;2023-02-28T02:53:32;5.98;;;5.98;;
73132;SDS011;61320;52.008;4.530;2023-02-28T02:56:04;6.08;;;6.08;;
73132;SDS011;61320;52.008;4.530;2023-02-28T02:58:33;6.24;;;6.24;;
73132;SDS011;61320;52.008;4.530;2023-02-28T03:01:07;6.18;;;6.18;;
73132;SDS011;61320;52.008;4.530;2023-02-28T03:03:37;6.12;;;6.12;;
73132;SDS011;61320;52.008;4.530;2023-02-28T03:06:04;6.15;;;6.15;;
73132;SDS011;61320;52.008;4.530;2023-02-28T03:08:33;6.48;;;6.48;;
73132;SDS011;61320;52.008;4.530;2023-02-28T03:11:02;6.24;;;6.24;;
73132;SDS011;61320;52.008;4.530;2023-02-28T03:19:04;6.06;;;6.06;;
73132;SDS011;61320;52.008;4.530;2023-02-28T03:29:53;6.40;;;6.40;;
73132;SDS011;61320;52.008;4.530;2023-02-28T03:32:40;6.57;;;6.57;;
73132;SDS011;61320;52.008;4.530;2023-02-28T03:35:13;6.61;;;6.61;;
73132;SDS011;61320;52.008;4.530;2023-02-28T03:37:47;6.69;;;6.69;;
73132;SDS011;61320;52.008;4.530;2023-02-28T03:40:22;6.71;;;6.71;;
73132;SDS011;61320;52.008;4.530;2023-02-28T03:42:55;6.92;;;6.92;;
73132;SDS011;61320;52.008;4.530;2023-02-28T03:45:29;6.87;;;6.87;;
73132;SDS011;61320;52.008;4.530;2023-02-28T03:50:37;6.61;;;6.61;;
73132;SDS011;61320;52.008;4.530;2023-02-28T03:53:19;6.79;;;6.79;;
73132;SDS011;61320;52.008;4.530;2023-02-28T03:55:53;6.75;;;6.75;;
73132;SDS011;61320;52.008;4.530;2023-02-28T03:58:42;6.87;;;6.87;;
73132;SDS011;61320;52.008;4.530;2023-02-28T04:01:30;6.75;;;6.75;;
73132;SDS011;61320;52.008;4.530;2023-02-28T04:04:03;6.94;;;6.94;;
73132;SDS011;61320;52.008;4.530;2023-02-28T04:06:30;6.93;;;6.93;;
73132;SDS011;61320;52.008;4.530;2023-02-28T04:08:57;7.16;;;7.16;;
73132;SDS011;61320;52.008;4.530;2023-02-28T04:11:27;7.06;;;7.06;;
73132;SDS011;61320;52.008;4.530;2023-02-28T04:14:06;7.24;;;7.24;;
73132;SDS011;61320;52.008;4.530;2023-02-28T04:16:34;7.65;;;7.65;;
73132;SDS011;61320;52.008;4.530;2023-02-28T04:19:03;7.86;;;7.86;;
73132;SDS011;61320;52.008;4.530;2023-02-28T04:24:04;7.94;;;7.94;;
73132;SDS011;61320;52.008;4.530;2023-02-28T04:26:31;7.93;;;7.93;;
73132;SDS011;61320;52.008;4.530;2023-02-28T04:28:58;7.50;;;7.50;;
73132;SDS011;61320;52.008;4.530;2023-02-28T04:31:24;7.36;;;7.36;;
73132;SDS011;61320;52.008;4.530;2023-02-28T04:33:50;7.01;;;7.01;;
73132;SDS011;61320;52.008;4.530;2023-02-28T04:36:16;6.74;;;6.74;;
73132;SDS011;61320;52.008;4.530;2023-02-28T04:38:43;6.88;;;6.88;;
73132;SDS011;61320;52.008;4.530;2023-02-28T04:41:10;7.09;;;7.09;;
73132;SDS011;61320;52.008;4.530;2023-02-28T04:43:37;7.08;;;7.08;;
73132;SDS011;61320;52.008;4.530;2023-02-28T04:46:03;6.68;;;6.67;;
73132;SDS011;61320;52.008;4.530;2023-02-28T04:48:31;6.75;;;6.75;;
73132;SDS011;61320;52.008;4.530;2023-02-28T04:51:12;6.68;;;6.68;;
73132;SDS011;61320;52.008;4.530;2023-02-28T04:53:39;6.69;;;6.69;;
73132;SDS011;61320;52.008;4.530;2023-02-28T04:56:07;6.49;;;6.49;;
73132;SDS011;61320;52.008;4.530;2023-02-28T04:58:35;6.55;;;6.55;;
73132;SDS011;61320;52.008;4.530;2023-02-28T05:01:02;6.02;;;6.02;;
73132;SDS011;61320;52.008;4.530;2023-02-28T05:03:41;6.33;;;6.33;;
73132;SDS011;61320;52.008;4.530;2023-02-28T05:06:10;6.61;;;6.61;;
73132;SDS011;61320;52.008;4.530;2023-02-28T05:08:37;7.17;;;7.16;;
73132;SDS011;61320;52.008;4.530;2023-02-28T05:11:04;7.26;;;7.26;;
73132;SDS011;61320;52.008;4.530;2023-02-28T05:13:38;7.58;;;7.58;;
73132;SDS011;61320;52.008;4.530;2023-02-28T05:16:05;7.96;;;7.96;;
73132;SDS011;61320;52.008;4.530;2023-02-28T05:18:30;7.88;;;7.88;;
73132;SDS011;61320;52.008;4.530;2023-02-28T05:20:56;8.41;;;8.41;;
73132;SDS011;61320;52.008;4.530;2023-02-28T05:23:22;8.30;;;8.29;;
73132;SDS011;61320;52.008;4.530;2023-02-28T05:25:48;8.42;;;8.42;;
73132;SDS011;61320;52.008;4.530;2023-02-28T05:28:14;8.58;;;8.58;;
73132;SDS011;61320;52.008;4.530;2023-02-28T05:30:39;9.34;;;9.34;;
73132;SDS011;61320;52.008;4.530;2023-02-28T05:33:05;9.49;;;9.49;;
73132;SDS011;61320;52.008;4.530;2023-02-28T05:35:30;9.64;;;9.64;;
73132;SDS011;61320;52.008;4.530;2023-02-28T05:37:57;9.65;;;9.59;;
73132;SDS011;61320;52.008;4.530;2023-02-28T05:40:22;9.83;;;9.76;;
73132;SDS011;61320;52.008;4.530;2023-02-28T05:42:49;9.57;;;9.57;;
73132;SDS011;61320;52.008;4.530;2023-02-28T05:45:15;9.91;;;9.91;;
73132;SDS011;61320;52.008;4.530;2023-02-28T05:47:42;10.46;;;10.46;;
73132;SDS011;61320;52.008;4.530;2023-02-28T05:50:08;9.98;;;9.98;;
73132;SDS011;61320;52.008;4.530;2023-02-28T05:52:35;9.58;;;9.58;;
73132;SDS011;61320;52.008;4.530;2023-02-28T05:55:01;10.10;;;10.10;;
73132;SDS011;61320;52.008;4.530;2023-02-28T05:57:26;10.62;;;10.61;;
73132;SDS011;61320;52.008;4.530;2023-02-28T05:59:52;10.28;;;10.28;;
73132;SDS011;61320;52.008;4.530;2023-02-28T06:02:17;10.27;;;10.27;;
73132;SDS011;61320;52.008;4.530;2023-02-28T06:04:43;10.35;;;10.35;;
73132;SDS011;61320;52.008;4.530;2023-02-28T06:07:09;10.86;;;10.86;;
73132;SDS011;61320;52.008;4.530;2023-02-28T06:09:35;10.37;;;10.37;;
73132;SDS011;61320;52.008;4.530;2023-02-28T06:12:02;10.38;;;10.38;;
73132;SDS011;61320;52.008;4.530;2023-02-28T06:14:31;10.63;;;10.63;;
73132;SDS011;61320;52.008;4.530;2023-02-28T06:16:58;9.94;;;9.94;;
73132;SDS011;61320;52.008;4.530;2023-02-28T06:19:27;9.65;;;9.65;;
73132;SDS011;61320;52.008;4.530;2023-02-28T06:21:54;9.50;;;9.50;;
73132;SDS011;61320;52.008;4.530;2023-02-28T06:24:22;9.53;;;9.53;;
73132;SDS011;61320;52.008;4.530;2023-02-28T06:26:52;9.35;;;9.35;;
73132;SDS011;61320;52.008;4.530;2023-02-28T06:29:18;8.91;;;8.91;;
73132;SDS011;61320;52.008;4.530;2023-02-28T06:31:45;8.95;;;8.95;;
73132;SDS011;61320;52.008;4.530;2023-02-28T06:34:12;8.71;;;8.71;;
73132;SDS011;61320;52.008;4.530;2023-02-28T06:36:39;7.70;;;7.70;;
73132;SDS011;61320;52.008;4.530;2023-02-28T06:39:06;6.93;;;6.93;;
73132;SDS011;61320;52.008;4.530;2023-02-28T06:41:33;6.30;;;6.30;;
73132;SDS011;61320;52.008;4.530;2023-02-28T06:44:03;5.60;;;5.60;;
73132;SDS011;61320;52.008;4.530;2023-02-28T06:46:42;5.45;;;5.45;;
73132;SDS011;61320;52.008;4.530;2023-02-28T06:49:10;5.33;;;5.33;;
73132;SDS011;61320;52.008;4.530;2023-02-28T06:51:37;5.54;;;5.54;;
73132;SDS011;61320;52.008;4.530;2023-02-28T06:54:05;5.92;;;5.92;;
73132;SDS011;61320;52.008;4.530;2023-02-28T06:56:34;6.29;;;6.29;;
73132;SDS011;61320;52.008;4.530;2023-02-28T06:59:00;6.16;;;6.16;;
73132;SDS011;61320;52.008;4.530;2023-02-28T07:01:26;6.22;;;6.22;;
73132;SDS011;61320;52.008;4.530;2023-02-28T07:03:53;6.13;;;6.13;;
73132;SDS011;61320;52.008;4.530;2023-02-28T07:06:20;6.31;;;6.31;;
73132;SDS011;61320;52.008;4.530;2023-02-28T07:08:47;6.47;;;6.47;;
73132;SDS011;61320;52.008;4.530;2023-02-28T07:11:14;6.26;;;6.26;;
73132;SDS011;61320;52.008;4.530;2023-02-28T07:13:40;6.43;;;6.43;;
73132;SDS011;61320;52.008;4.530;2023-02-28T07:16:08;6.39;;;6.39;;
73132;SDS011;61320;52.008;4.530;2023-02-28T07:18:35;6.08;;;6.08;;
73132;SDS011;61320;52.008;4.530;2023-02-28T07:21:03;6.44;;;6.44;;
73132;SDS011;61320;52.008;4.530;2023-02-28T07:23:30;6.35;;;6.35;;
73132;SDS011;61320;52.008;4.530;2023-02-28T07:25:56;6.20;;;6.20;;
73132;SDS011;61320;52.008;4.530;2023-02-28T07:28:21;6.45;;;6.45;;
73132;SDS011;61320;52.008;4.530;2023-02-28T07:30:47;6.29;;;6.29;;
73132;SDS011;61320;52.008;4.530;2023-02-28T07:33:13;6.67;;;6.67;;
73132;SDS011;61320;52.008;4.530;2023-02-28T07:35:38;6.47;;;6.47;;
73132;SDS011;61320;52.008;4.530;2023-02-28T07:38:04;6.74;;;6.74;;
73132;SDS011;61320;52.008;4.530;2023-02-28T07:40:30;6.82;;;6.82;;
73132;SDS011;61320;52.008;4.530;2023-02-28T07:42:55;6.93;;;6.93;;
73132;SDS011;61320;52.008;4.530;2023-02-28T07:45:21;7.10;;;7.10;;
73132;SDS011;61320;52.008;4.530;2023-02-28T07:47:46;6.76;;;6.76;;
73132;SDS011;61320;52.008;4.530;2023-02-28T07:50:13;6.76;;;6.76;;
73132;SDS011;61320;52.008;4.530;2023-02-28T07:52:40;6.67;;;6.67;;
73132;SDS011;61320;52.008;4.530;2023-02-28T07:55:06;6.34;;;6.34;;
73132;SDS011;61320;52.008;4.530;2023-02-28T07:57:34;6.47;;;6.47;;
73132;SDS011;61320;52.008;4.530;2023-02-28T08:00:00;6.51;;;6.51;;
73132;SDS011;61320;52.008;4.530;2023-02-28T08:02:25;6.72;;;6.72;;
73132;SDS011;61320;52.008;4.530;2023-02-28T08:04:51;6.79;;;6.79;;
73132;SDS011;61320;52.008;4.530;2023-02-28T08:07:17;6.70;;;6.70;;
73132;SDS011;61320;52.008;4.530;2023-02-28T08:09:43;7.05;;;7.05;;
73132;SDS011;61320;52.008;4.530;2023-02-28T08:12:10;7.52;;;7.52;;
73132;SDS011;61320;52.008;4.530;2023-02-28T08:14:36;7.44;;;7.44;;
73132;SDS011;61320;52.008;4.530;2023-02-28T08:17:04;7.44;;;7.44;;
73132;SDS011;61320;52.008;4.530;2023-02-28T08:19:30;7.51;;;7.51;;
73132;SDS011;61320;52.008;4.530;2023-02-28T08:21:56;7.93;;;7.93;;
73132;SDS011;61320;52.008;4.530;2023-02-28T08:24:22;8.07;;;8.07;;
73132;SDS011;61320;52.008;4.530;2023-02-28T08:26:48;7.50;;;7.50;;
73132;SDS011;61320;52.008;4.530;2023-02-28T08:29:14;7.86;;;7.86;;
73132;SDS011;61320;52.008;4.530;2023-02-28T08:31:39;7.83;;;7.83;;
73132;SDS011;61320;52.008;4.530;2023-02-28T08:34:06;8.03;;;8.03;;
73132;SDS011;61320;52.008;4.530;2023-02-28T08:36:37;8.49;;;8.49;;
73132;SDS011;61320;52.008;4.530;2023-02-28T08:39:04;8.16;;;8.16;;
73132;SDS011;61320;52.008;4.530;2023-02-28T08:41:30;8.31;;;8.31;;
73132;SDS011;61320;52.008;4.530;2023-02-28T08:43:56;8.53;;;8.53;;
73132;SDS011;61320;52.008;4.530;2023-02-28T08:46:22;8.94;;;8.94;;
73132;SDS011;61320;52.008;4.530;2023-02-28T08:48:51;9.93;;;9.93;;
73132;SDS011;61320;52.008;4.530;2023-02-28T08:51:18;10.08;;;10.08;;
73132;SDS011;61320;52.008;4.530;2023-02-28T08:53:47;8.95;;;8.95;;
73132;SDS011;61320;52.008;4.530;2023-02-28T08:56:15;9.06;;;9.06;;
73132;SDS011;61320;52.008;4.530;2023-02-28T08:58:41;9.34;;;9.34;;
73132;SDS011;61320;52.008;4.530;2023-02-28T09:01:13;8.60;;;8.60;;
73132;SDS011;61320;52.008;4.530;2023-02-28T09:03:43;8.78;;;8.78;;
73132;SDS011;61320;52.008;4.530;2023-02-28T09:06:11;8.29;;;8.29;;
73132;SDS011;61320;52.008;4.530;2023-02-28T09:08:37;8.57;;;8.57;;
73132;SDS011;61320;52.008;4.530;2023-02-28T09:11:05;8.81;;;8.81;;
73132;SDS011;61320;52.008;4.530;2023-02-28T09:13:31;8.41;;;8.41;;
73132;SDS011;61320;52.008;4.530;2023-02-28T09:16:01;8.77;;;8.77;;
73132;SDS011;61320;52.008;4.530;2023-02-28T09:18:28;9.82;;;9.82;;
73132;SDS011;61320;52.008;4.530;2023-02-28T09:20:55;10.05;;;10.05;;
73132;SDS011;61320;52.008;4.530;2023-02-28T09:23:21;10.32;;;10.32;;
73132;SDS011;61320;52.008;4.530;2023-02-28T09:25:53;9.60;;;9.54;;
73132;SDS011;61320;52.008;4.530;2023-02-28T09:28:20;8.39;;;8.39;;
73132;SDS011;61320;52.008;4.530;2023-02-28T09:30:48;8.81;;;8.81;;
73132;SDS011;61320;52.008;4.530;2023-02-28T09:33:16;10.41;;;10.41;;
73132;SDS011;61320;52.008;4.530;2023-02-28T09:35:45;10.75;;;10.75;;
73132;SDS011;61320;52.008;4.530;2023-02-28T09:38:11;10.58;;;10.58;;
73132;SDS011;61320;52.008;4.530;2023-02-28T09:40:37;10.03;;;10.03;;
73132;SDS011;61320;52.008;4.530;2023-02-28T09:43:28;10.24;;;10.21;;
73132;SDS011;61320;52.008;4.530;2023-02-28T09:46:46;9.97;;;9.97;;
73132;SDS011;61320;52.008;4.530;2023-02-28T09:48:51;9.83;;;9.83;;
73132;SDS011;61320;52.008;4.530;2023-02-28T09:51:26;9.03;;;9.03;;
73132;SDS011;61320;52.008;4.530;2023-02-28T09:54:00;9.21;;;9.21;;
73132;SDS011;61320;52.008;4.530;2023-02-28T09:56:28;9.07;;;9.07;;
73132;SDS011;61320;52.008;4.530;2023-02-28T09:59:17;9.69;;;9.69;;
73132;SDS011;61320;52.008;4.530;2023-02-28T10:02:16;9.40;;;9.40;;
73132;SDS011;61320;52.008;4.530;2023-02-28T10:04:56;9.50;;;9.50;;
73132;SDS011;61320;52.008;4.530;2023-02-28T10:12:58;9.42;;;9.42;;
73132;SDS011;61320;52.008;4.530;2023-02-28T10:15:30;8.70;;;8.70;;
73132;SDS011;61320;52.008;4.530;2023-02-28T10:18:06;8.54;;;8.54;;
73132;SDS011;61320;52.008;4.530;2023-02-28T10:20:39;8.51;;;8.51;;
73132;SDS011;61320;52.008;4.530;2023-02-28T10:23:10;7.56;;;7.56;;
73132;SDS011;61320;52.008;4.530;2023-02-28T10:25:47;7.08;;;7.08;;
73132;SDS011;61320;52.008;4.530;2023-02-28T10:28:26;7.01;;;7.01;;
73132;SDS011;61320;52.008;4.530;2023-02-28T10:30:55;6.51;;;6.51;;
73132;SDS011;61320;52.008;4.530;2023-02-28T10:35:50;5.86;;;5.86;;
73132;SDS011;61320;52.008;4.530;2023-02-28T10:38:25;6.91;;;6.91;;
73132;SDS011;61320;52.008;4.530;2023-02-28T10:43:35;6.86;;;6.86;;
73132;SDS011;61320;52.008;4.530;2023-02-28T10:48:50;7.43;;;7.43;;
73132;SDS011;61320;52.008;4.530;2023-02-28T10:51:34;6.96;;;6.96;;
73132;SDS011;61320;52.008;4.530;2023-02-28T10:54:02;6.83;;;6.83;;
73132;SDS011;61320;52.008;4.530;2023-02-28T10:56:29;7.00;;;7.00;;
73132;SDS011;61320;52.008;4.530;2023-02-28T10:59:02;6.71;;;6.71;;
73132;SDS011;61320;52.008;4.530;2023-02-28T11:01:42;6.41;;;6.41;;
73132;SDS011;61320;52.008;4.530;2023-02-28T11:04:23;6.81;;;6.81;;
73132;SDS011;61320;52.008;4.530;2023-02-28T11:07:20;6.33;;;6.33;;
73132;SDS011;61320;52.008;4.530;2023-02-28T11:09:48;6.41;;;6.41;;
73132;SDS011;61320;52.008;4.530;2023-02-28T11:12:24;6.41;;;6.41;;
73132;SDS011;61320;52.008;4.530;2023-02-28T11:14:58;5.65;;;5.65;;
73132;SDS011;61320;52.008;4.530;2023-02-28T11:17:31;5.95;;;5.95;;
73132;SDS011;61320;52.008;4.530;2023-02-28T11:19:59;5.91;;;5.91;;
73132;SDS011;61320;52.008;4.530;2023-02-28T11:22:29;6.14;;;6.14;;
73132;SDS011;61320;52.008;4.530;2023-02-28T11:25:06;5.93;;;5.93;;
73132;SDS011;61320;52.008;4.530;2023-02-28T11:27:51;5.80;;;5.80;;
73132;SDS011;61320;52.008;4.530;2023-02-28T11:30:29;5.96;;;5.96;;
73132;SDS011;61320;52.008;4.530;2023-02-28T11:33:00;5.63;;;5.63;;
73132;SDS011;61320;52.008;4.530;2023-02-28T11:35:43;5.25;;;5.25;;
73132;SDS011;61320;52.008;4.530;2023-02-28T11:38:09;4.81;;;4.81;;
73132;SDS011;61320;52.008;4.530;2023-02-28T11:48:49;4.29;;;4.29;;
73132;SDS011;61320;52.008;4.530;2023-02-28T11:51:50;4.23;;;4.23;;
73132;SDS011;61320;52.008;4.530;2023-02-28T11:54:35;4.54;;;4.54;;
73132;SDS011;61320;52.008;4.530;2023-02-28T12:05:45;4.57;;;4.57;;
73132;SDS011;61320;52.008;4.530;2023-02-28T12:13:28;4.54;;;4.54;;
73132;SDS011;61320;52.008;4.530;2023-02-28T12:27:02;4.83;;;4.83;;
73132;SDS011;61320;52.008;4.530;2023-02-28T12:29:54;4.68;;;4.68;;
73132;SDS011;61320;52.008;4.530;2023-02-28T12:32:27;4.60;;;4.60;;
73132;SDS011;61320;52.008;4.530;2023-02-28T12:35:32;4.82;;;4.82;;
73132;SDS011;61320;52.008;4.530;2023-02-28T12:37:57;4.68;;;4.68;;
73132;SDS011;61320;52.008;4.530;2023-02-28T12:40:43;4.37;;;4.37;;
73132;SDS011;61320;52.008;4.530;2023-02-28T12:43:14;4.19;;;4.19;;
73132;SDS011;61320;52.008;4.530;2023-02-28T12:45:51;4.15;;;4.15;;
73132;SDS011;61320;52.008;4.530;2023-02-28T12:48:41;3.89;;;3.89;;
73132;SDS011;61320;52.008;4.530;2023-02-28T12:51:09;4.18;;;4.18;;
73132;SDS011;61320;52.008;4.530;2023-02-28T12:58:46;3.96;;;3.96;;
73132;SDS011;61320;52.008;4.530;2023-02-28T13:09:31;4.09;;;4.09;;
73132;SDS011;61320;52.008;4.530;2023-02-28T13:11:57;4.30;;;4.30;;
73132;SDS011;61320;52.008;4.530;2023-02-28T13:14:29;4.21;;;4.21;;
73132;SDS011;61320;52.008;4.530;2023-02-28T13:19:37;4.23;;;4.23;;
73132;SDS011;61320;52.008;4.530;2023-02-28T13:27:48;4.53;;;4.53;;
73132;SDS011;61320;52.008;4.530;2023-02-28T13:33:33;4.54;;;4.54;;
73132;SDS011;61320;52.008;4.530;2023-02-28T13:38:48;4.64;;;4.64;;
73132;SDS011;61320;52.008;4.530;2023-02-28T13:47:15;4.34;;;4.34;;
73132;SDS011;61320;52.008;4.530;2023-02-28T14:03:22;4.79;;;4.79;;
73132;SDS011;61320;52.008;4.530;2023-02-28T14:06:13;4.57;;;4.57;;
73132;SDS011;61320;52.008;4.530;2023-02-28T14:11:37;4.73;;;4.73;;
73132;SDS011;61320;52.008;4.530;2023-02-28T14:14:06;4.93;;;4.93;;
73132;SDS011;61320;52.008;4.530;2023-02-28T14:16:39;4.38;;;4.38;;
73132;SDS011;61320;52.008;4.530;2023-02-28T14:19:14;4.53;;;4.53;;
73132;SDS011;61320;52.008;4.530;2023-02-28T14:24:50;4.97;;;4.97;;
73132;SDS011;61320;52.008;4.530;2023-02-28T14:27:30;4.91;;;4.91;;
73132;SDS011;61320;52.008;4.530;2023-02-28T14:30:09;4.87;;;4.87;;
73132;SDS011;61320;52.008;4.530;2023-02-28T14:33:14;4.43;;;4.43;;
73132;SDS011;61320;52.008;4.530;2023-02-28T14:38:19;4.43;;;4.43;;
73132;SDS011;61320;52.008;4.530;2023-02-28T14:40:49;4.33;;;4.33;;
73132;SDS011;61320;52.008;4.530;2023-02-28T14:43:21;4.27;;;4.27;;
73132;SDS011;61320;52.008;4.530;2023-02-28T14:45:53;4.17;;;4.17;;
73132;SDS011;61320;52.008;4.530;2023-02-28T14:48:22;4.35;;;4.35;;
73132;SDS011;61320;52.008;4.530;2023-02-28T14:50:51;4.14;;;4.14;;
73132;SDS011;61320;52.008;4.530;2023-02-28T14:53:19;4.41;;;4.41;;
73132;SDS011;61320;52.008;4.530;2023-02-28T14:55:49;4.09;;;4.09;;
73132;SDS011;61320;52.008;4.530;2023-02-28T15:00:52;4.08;;;4.08;;
73132;SDS011;61320;52.008;4.530;2023-02-28T15:03:21;4.06;;;4.06;;
73132;SDS011;61320;52.008;4.530;2023-02-28T15:05:56;3.83;;;3.83;;
73132;SDS011;61320;52.008;4.530;2023-02-28T15:08:31;3.99;;;3.99;;
73132;SDS011;61320;52.008;4.530;2023-02-28T15:11:07;4.09;;;4.09;;
73132;SDS011;61320;52.008;4.530;2023-02-28T15:13:43;3.89;;;3.89;;
73132;SDS011;61320;52.008;4.530;2023-02-28T15:16:22;4.21;;;4.21;;
73132;SDS011;61320;52.008;4.530;2023-02-28T15:18:56;4.26;;;4.26;;
73132;SDS011;61320;52.008;4.530;2023-02-28T15:21:31;3.95;;;3.95;;
73132;SDS011;61320;52.008;4.530;2023-02-28T15:26:41;3.95;;;3.95;;
73132;SDS011;61320;52.008;4.530;2023-02-28T15:31:43;4.18;;;4.18;;
73132;SDS011;61320;52.008;4.530;2023-02-28T15:34:26;3.87;;;3.87;;
73132;SDS011;61320;52.008;4.530;2023-02-28T15:36:53;3.89;;;3.89;;
73132;SDS011;61320;52.008;4.530;2023-02-28T15:39:20;4.03;;;4.03;;
73132;SDS011;61320;52.008;4.530;2023-02-28T15:41:48;4.03;;;4.03;;
73132;SDS011;61320;52.008;4.530;2023-02-28T15:44:15;4.00;;;4.00;;
73132;SDS011;61320;52.008;4.530;2023-02-28T15:49:20;3.90;;;3.90;;
73132;SDS011;61320;52.008;4.530;2023-02-28T15:51:48;4.07;;;4.07;;
73132;SDS011;61320;52.008;4.530;2023-02-28T15:54:21;4.56;;;4.56;;
73132;SDS011;61320;52.008;4.530;2023-02-28T15:56:53;4.06;;;4.06;;
73132;SDS011;61320;52.008;4.530;2023-02-28T15:59:26;4.50;;;4.50;;
73132;SDS011;61320;52.008;4.530;2023-02-28T16:02:13;4.69;;;4.69;;
73132;SDS011;61320;52.008;4.530;2023-02-28T16:05:45;4.75;;;4.75;;
73132;SDS011;61320;52.008;4.530;2023-02-28T16:07:53;4.69;;;4.69;;
73132;SDS011;61320;52.008;4.530;2023-02-28T16:10:21;4.60;;;4.60;;
73132;SDS011;61320;52.008;4.530;2023-02-28T16:12:52;5.02;;;5.02;;
73132;SDS011;61320;52.008;4.530;2023-02-28T16:15:20;4.66;;;4.66;;
73132;SDS011;61320;52.008;4.530;2023-02-28T16:17:51;4.68;;;4.68;;
73132;SDS011;61320;52.008;4.530;2023-02-28T16:20:25;4.72;;;4.72;;
73132;SDS011;61320;52.008;4.530;2023-02-28T16:22:53;4.83;;;4.83;;
73132;SDS011;61320;52.008;4.530;2023-02-28T16:25:20;5.12;;;5.12;;
73132;SDS011;61320;52.008;4.530;2023-02-28T16:27:50;5.10;;;5.10;;
73132;SDS011;61320;52.008;4.530;2023-02-28T16:30:26;5.09;;;5.09;;
73132;SDS011;61320;52.008;4.530;2023-02-28T16:32:56;5.59;;;5.59;;
73132;SDS011;61320;52.008;4.530;2023-02-28T16:35:23;5.83;;;5.83;;
73132;SDS011;61320;52.008;4.530;2023-02-28T16:37:52;5.60;;;5.60;;
73132;SDS011;61320;52.008;4.530;2023-02-28T16:40:19;5.25;;;5.25;;
73132;SDS011;61320;52.008;4.530;2023-02-28T16:42:48;5.28;;;5.28;;
73132;SDS011;61320;52.008;4.530;2023-02-28T16:45:24;5.52;;;5.52;;
73132;SDS011;61320;52.008;4.530;2023-02-28T16:47:52;5.37;;;5.37;;
73132;SDS011;61320;52.008;4.530;2023-02-28T16:50:22;5.76;;;5.76;;
73132;SDS011;61320;52.008;4.530;2023-02-28T16:52:50;5.58;;;5.58;;
73132;SDS011;61320;52.008;4.530;2023-02-28T16:55:20;5.92;;;5.92;;
73132;SDS011;61320;52.008;4.530;2023-02-28T16:57:51;5.81;;;5.81;;
73132;SDS011;61320;52.008;4.530;2023-02-28T17:00:27;5.55;;;5.55;;
73132;SDS011;61320;52.008;4.530;2023-02-28T17:02:56;5.81;;;5.81;;
73132;SDS011;61320;52.008;4.530;2023-02-28T17:05:21;5.82;;;5.82;;
73132;SDS011;61320;52.008;4.530;2023-02-28T17:07:48;5.80;;;5.80;;
73132;SDS011;61320;52.008;4.530;2023-02-28T17:12:47;6.32;;;6.32;;
73132;SDS011;61320;52.008;4.530;2023-02-28T17:15:15;6.67;;;6.67;;
73132;SDS011;61320;52.008;4.530;2023-02-28T17:17:43;6.56;;;6.56;;
73132;SDS011;61320;52.008;4.530;2023-02-28T17:20:21;6.41;;;6.41;;
73132;SDS011;61320;52.008;4.530;2023-02-28T17:22:52;6.44;;;6.44;;
73132;SDS011;61320;52.008;4.530;2023-02-28T17:25:18;6.73;;;6.73;;
73132;SDS011;61320;52.008;4.530;2023-02-28T17:27:44;7.18;;;7.18;;
73132;SDS011;61320;52.008;4.530;2023-02-28T17:32:39;6.91;;;6.91;;
73132;SDS011;61320;52.008;4.530;2023-02-28T17:35:05;7.04;;;7.04;;
73132;SDS011;61320;52.008;4.530;2023-02-28T17:37:31;7.06;;;7.06;;
73132;SDS011;61320;52.008;4.530;2023-02-28T17:39:56;7.03;;;7.03;;
73132;SDS011;61320;52.008;4.530;2023-02-28T17:42:21;6.76;;;6.76;;
73132;SDS011;61320;52.008;4.530;2023-02-28T17:44:47;6.77;;;6.77;;